Bandon, Oregon
Current Conditions -  °F | °C
As of 11:55 PM on Thursday 30 Oct 2014 (Local Time) from KOTH Reporting Station
Overcast Overcast  
Wind Chill: 55°   Ceiling: 1300
Heat Index: 55°   Visibility: 5mi
Dew Point: 55°   Wind: 7mph
Humidity: 100%   Direction: 250°WSW
Pressure: 29.78"   Gusts: NA
Location:  43.12°N, 124.41°W
Report Text: KOTH 310655Z 25006KT 5SM SCT006 BKN013 OVC020 13/13 A2978 RMK AO1 P0006
Loading
Personal Weather Stations






























Interactive Weather Map
Tropical Storm Tracking
New forecast layout! Learn more

10-Day Weather Forecast

Advertisements
Track Severe Weather on mobile